sensor_id;sensor_type;location;lat;lon;timestamp;P1;durP1;ratioP1;P2;durP2;ratioP2
2824;SDS011;1420;51.324;12.344;2022-08-11T00:02:07;46.24;;;42.64;;
2824;SDS011;1420;51.324;12.344;2022-08-11T00:04:35;27.46;;;24.82;;
2824;SDS011;1420;51.324;12.344;2022-08-11T00:07:02;25.66;;;23.10;;
2824;SDS011;1420;51.324;12.344;2022-08-11T00:09:30;21.86;;;19.56;;
2824;SDS011;1420;51.324;12.344;2022-08-11T00:11:56;26.82;;;24.08;;
2824;SDS011;1420;51.324;12.344;2022-08-11T00:14:27;19.00;;;14.12;;
2824;SDS011;1420;51.324;12.344;2022-08-11T00:16:56;20.80;;;17.22;;
2824;SDS011;1420;51.324;12.344;2022-08-11T00:19:31;21.28;;;19.08;;
2824;SDS011;1420;51.324;12.344;2022-08-11T00:21:58;40.00;;;36.90;;
2824;SDS011;1420;51.324;12.344;2022-08-11T00:24:30;35.42;;;32.50;;
2824;SDS011;1420;51.324;12.344;2022-08-11T00:26:53;27.82;;;25.16;;
2824;SDS011;1420;51.324;12.344;2022-08-11T00:29:20;22.42;;;19.76;;
2824;SDS011;1420;51.324;12.344;2022-08-11T00:31:48;26.86;;;24.26;;
2824;SDS011;1420;51.324;12.344;2022-08-11T00:34:19;23.36;;;20.66;;
2824;SDS011;1420;51.324;12.344;2022-08-11T00:36:49;26.48;;;23.98;;
2824;SDS011;1420;51.324;12.344;2022-08-11T00:39:14;23.98;;;21.46;;
2824;SDS011;1420;51.324;12.344;2022-08-11T00:41:50;21.86;;;19.64;;
2824;SDS011;1420;51.324;12.344;2022-08-11T00:44:32;19.98;;;16.18;;
2824;SDS011;1420;51.324;12.344;2022-08-11T00:50:06;22.38;;;18.72;;
2824;SDS011;1420;51.324;12.344;2022-08-11T00:52:35;27.74;;;25.14;;
2824;SDS011;1420;51.324;12.344;2022-08-11T00:55:06;24.52;;;22.08;;
2824;SDS011;1420;51.324;12.344;2022-08-11T00:57:59;39.70;;;36.60;;
2824;SDS011;1420;51.324;12.344;2022-08-11T01:00:25;20.36;;;16.42;;
2824;SDS011;1420;51.324;12.344;2022-08-11T01:03:02;28.94;;;26.28;;
2824;SDS011;1420;51.324;12.344;2022-08-11T01:05:29;28.26;;;25.64;;
2824;SDS011;1420;51.324;12.344;2022-08-11T01:10:52;33.60;;;30.74;;
2824;SDS011;1420;51.324;12.344;2022-08-11T01:13:42;28.40;;;25.74;;
2824;SDS011;1420;51.324;12.344;2022-08-11T01:16:16;27.06;;;24.32;;
2824;SDS011;1420;51.324;12.344;2022-08-11T01:19:00;28.90;;;25.10;;
2824;SDS011;1420;51.324;12.344;2022-08-11T01:22:43;24.84;;;22.50;;
2824;SDS011;1420;51.324;12.344;2022-08-11T01:24:28;23.08;;;19.28;;
2824;SDS011;1420;51.324;12.344;2022-08-11T01:32:55;24.48;;;21.70;;
2824;SDS011;1420;51.324;12.344;2022-08-11T01:40:40;39.68;;;36.40;;
2824;SDS011;1420;51.324;12.344;2022-08-11T01:45:56;27.42;;;24.72;;
2824;SDS011;1420;51.324;12.344;2022-08-11T01:48:40;34.18;;;31.30;;
2824;SDS011;1420;51.324;12.344;2022-08-11T01:51:16;41.92;;;38.38;;
2824;SDS011;1420;51.324;12.344;2022-08-11T01:54:03;33.04;;;30.36;;
2824;SDS011;1420;51.324;12.344;2022-08-11T01:59:18;49.22;;;45.52;;
2824;SDS011;1420;51.324;12.344;2022-08-11T02:01:48;38.02;;;34.96;;
2824;SDS011;1420;51.324;12.344;2022-08-11T02:04:33;52.90;;;48.72;;
2824;SDS011;1420;51.324;12.344;2022-08-11T02:07:18;45.68;;;42.30;;
2824;SDS011;1420;51.324;12.344;2022-08-11T02:09:50;57.54;;;52.62;;
2824;SDS011;1420;51.324;12.344;2022-08-11T02:15:07;39.44;;;36.34;;
2824;SDS011;1420;51.324;12.344;2022-08-11T02:17:36;36.78;;;33.80;;
2824;SDS011;1420;51.324;12.344;2022-08-11T02:20:09;48.06;;;44.58;;
2824;SDS011;1420;51.324;12.344;2022-08-11T02:22:48;36.50;;;33.42;;
2824;SDS011;1420;51.324;12.344;2022-08-11T02:25:30;47.56;;;43.52;;
2824;SDS011;1420;51.324;12.344;2022-08-11T02:28:06;40.86;;;37.74;;
2824;SDS011;1420;51.324;12.344;2022-08-11T02:30:34;66.78;;;61.42;;
2824;SDS011;1420;51.324;12.344;2022-08-11T02:33:11;42.08;;;38.90;;
2824;SDS011;1420;51.324;12.344;2022-08-11T02:38:25;48.34;;;44.76;;
2824;SDS011;1420;51.324;12.344;2022-08-11T02:41:18;68.60;;;63.82;;
2824;SDS011;1420;51.324;12.344;2022-08-11T02:43:52;67.26;;;62.40;;
2824;SDS011;1420;51.324;12.344;2022-08-11T02:46:20;50.06;;;46.10;;
2824;SDS011;1420;51.324;12.344;2022-08-11T02:48:50;60.10;;;56.02;;
2824;SDS011;1420;51.324;12.344;2022-08-11T02:51:44;49.88;;;46.06;;
2824;SDS011;1420;51.324;12.344;2022-08-11T02:54:21;62.00;;;56.92;;
2824;SDS011;1420;51.324;12.344;2022-08-11T02:56:56;69.08;;;63.66;;
2824;SDS011;1420;51.324;12.344;2022-08-11T02:59:48;61.74;;;57.26;;
2824;SDS011;1420;51.324;12.344;2022-08-11T03:02:25;44.36;;;40.90;;
2824;SDS011;1420;51.324;12.344;2022-08-11T03:06:19;43.20;;;39.92;;
2824;SDS011;1420;51.324;12.344;2022-08-11T03:08:22;46.76;;;43.06;;
2824;SDS011;1420;51.324;12.344;2022-08-11T03:10:58;49.54;;;45.82;;
2824;SDS011;1420;51.324;12.344;2022-08-11T03:13:41;46.66;;;42.92;;
2824;SDS011;1420;51.324;12.344;2022-08-11T03:16:16;74.48;;;69.24;;
2824;SDS011;1420;51.324;12.344;2022-08-11T03:18:53;76.64;;;71.70;;
2824;SDS011;1420;51.324;12.344;2022-08-11T03:21:21;77.80;;;71.74;;
2824;SDS011;1420;51.324;12.344;2022-08-11T03:24:00;62.20;;;57.84;;
2824;SDS011;1420;51.324;12.344;2022-08-11T03:26:32;60.04;;;55.82;;
2824;SDS011;1420;51.324;12.344;2022-08-11T03:29:08;69.94;;;65.22;;
2824;SDS011;1420;51.324;12.344;2022-08-11T03:34:14;76.08;;;70.20;;
2824;SDS011;1420;51.324;12.344;2022-08-11T03:36:58;78.28;;;72.94;;
2824;SDS011;1420;51.324;12.344;2022-08-11T03:42:27;86.52;;;80.80;;
2824;SDS011;1420;51.324;12.344;2022-08-11T03:45:19;63.86;;;59.54;;
2824;SDS011;1420;51.324;12.344;2022-08-11T03:47:56;65.68;;;60.14;;
2824;SDS011;1420;51.324;12.344;2022-08-11T03:50:31;79.38;;;73.90;;
2824;SDS011;1420;51.324;12.344;2022-08-11T03:53:04;66.70;;;61.88;;
2824;SDS011;1420;51.324;12.344;2022-08-11T04:01:27;87.46;;;81.02;;
2824;SDS011;1420;51.324;12.344;2022-08-11T04:04:12;89.00;;;82.96;;
2824;SDS011;1420;51.324;12.344;2022-08-11T04:07:08;72.72;;;68.08;;
2824;SDS011;1420;51.324;12.344;2022-08-11T04:09:43;79.02;;;73.20;;
2824;SDS011;1420;51.324;12.344;2022-08-11T04:12:11;119.20;;;111.28;;
2824;SDS011;1420;51.324;12.344;2022-08-11T04:14:55;85.56;;;79.68;;
2824;SDS011;1420;51.324;12.344;2022-08-11T04:17:36;122.64;;;114.72;;
2824;SDS011;1420;51.324;12.344;2022-08-11T04:20:11;141.96;;;131.96;;
2824;SDS011;1420;51.324;12.344;2022-08-11T04:22:48;126.06;;;115.98;;
2824;SDS011;1420;51.324;12.344;2022-08-11T04:28:54;110.26;;;101.86;;
2824;SDS011;1420;51.324;12.344;2022-08-11T04:31:07;88.80;;;80.44;;
2824;SDS011;1420;51.324;12.344;2022-08-11T04:36:36;112.98;;;104.80;;
2824;SDS011;1420;51.324;12.344;2022-08-11T04:39:13;72.68;;;67.58;;
2824;SDS011;1420;51.324;12.344;2022-08-11T04:45:25;79.48;;;73.90;;
2824;SDS011;1420;51.324;12.344;2022-08-11T04:47:08;71.62;;;66.30;;
2824;SDS011;1420;51.324;12.344;2022-08-11T04:49:39;59.98;;;54.98;;
2824;SDS011;1420;51.324;12.344;2022-08-11T04:55:44;64.86;;;60.54;;
2824;SDS011;1420;51.324;12.344;2022-08-11T04:58:21;62.04;;;57.08;;
2824;SDS011;1420;51.324;12.344;2022-08-11T05:04:10;57.60;;;53.02;;
2824;SDS011;1420;51.324;12.344;2022-08-11T05:10:05;46.44;;;42.00;;
2824;SDS011;1420;51.324;12.344;2022-08-11T05:12:39;37.00;;;33.70;;
2824;SDS011;1420;51.324;12.344;2022-08-11T05:15:03;33.94;;;30.96;;
2824;SDS011;1420;51.324;12.344;2022-08-11T05:17:37;56.14;;;51.72;;
2824;SDS011;1420;51.324;12.344;2022-08-11T05:20:10;48.36;;;44.10;;
2824;SDS011;1420;51.324;12.344;2022-08-11T05:22:48;50.84;;;47.14;;
2824;SDS011;1420;51.324;12.344;2022-08-11T05:25:21;33.12;;;30.22;;
2824;SDS011;1420;51.324;12.344;2022-08-11T05:27:57;24.58;;;22.04;;
2824;SDS011;1420;51.324;12.344;2022-08-11T05:30:44;31.74;;;28.46;;
2824;SDS011;1420;51.324;12.344;2022-08-11T05:33:22;29.38;;;26.80;;
2824;SDS011;1420;51.324;12.344;2022-08-11T05:36:05;23.04;;;20.76;;
2824;SDS011;1420;51.324;12.344;2022-08-11T05:38:31;26.00;;;23.76;;
2824;SDS011;1420;51.324;12.344;2022-08-11T05:41:02;27.48;;;24.78;;
2824;SDS011;1420;51.324;12.344;2022-08-11T05:43:39;22.50;;;18.38;;
2824;SDS011;1420;51.324;12.344;2022-08-11T05:46:08;25.26;;;17.76;;
2824;SDS011;1420;51.324;12.344;2022-08-11T05:48:41;25.14;;;13.42;;
2824;SDS011;1420;51.324;12.344;2022-08-11T05:51:14;23.12;;;14.74;;
2824;SDS011;1420;51.324;12.344;2022-08-11T05:53:50;18.02;;;12.24;;
2824;SDS011;1420;51.324;12.344;2022-08-11T05:56:21;17.08;;;11.26;;
2824;SDS011;1420;51.324;12.344;2022-08-11T05:58:50;16.86;;;6.58;;
2824;SDS011;1420;51.324;12.344;2022-08-11T06:01:22;15.56;;;6.76;;
2824;SDS011;1420;51.324;12.344;2022-08-11T06:03:50;16.14;;;8.44;;
2824;SDS011;1420;51.324;12.344;2022-08-11T06:06:23;16.48;;;8.18;;
2824;SDS011;1420;51.324;12.344;2022-08-11T06:08:52;15.00;;;7.90;;
2824;SDS011;1420;51.324;12.344;2022-08-11T06:11:17;16.98;;;8.04;;
2824;SDS011;1420;51.324;12.344;2022-08-11T06:13:44;16.38;;;8.06;;
2824;SDS011;1420;51.324;12.344;2022-08-11T06:16:13;18.78;;;12.76;;
2824;SDS011;1420;51.324;12.344;2022-08-11T06:18:44;19.22;;;9.90;;
2824;SDS011;1420;51.324;12.344;2022-08-11T06:21:11;22.16;;;12.14;;
2824;SDS011;1420;51.324;12.344;2022-08-11T06:23:38;19.80;;;12.76;;
2824;SDS011;1420;51.324;12.344;2022-08-11T06:26:08;20.16;;;10.90;;
2824;SDS011;1420;51.324;12.344;2022-08-11T06:28:36;21.86;;;12.44;;
2824;SDS011;1420;51.324;12.344;2022-08-11T06:31:10;21.96;;;12.72;;
2824;SDS011;1420;51.324;12.344;2022-08-11T06:33:37;22.10;;;13.20;;
2824;SDS011;1420;51.324;12.344;2022-08-11T06:36:10;22.14;;;16.52;;
2824;SDS011;1420;51.324;12.344;2022-08-11T06:38:40;22.60;;;17.40;;
2824;SDS011;1420;51.324;12.344;2022-08-11T06:41:12;21.78;;;14.30;;
2824;SDS011;1420;51.324;12.344;2022-08-11T06:43:53;20.30;;;10.50;;
2824;SDS011;1420;51.324;12.344;2022-08-11T06:46:25;19.96;;;9.00;;
2824;SDS011;1420;51.324;12.344;2022-08-11T06:48:54;20.74;;;11.48;;
2824;SDS011;1420;51.324;12.344;2022-08-11T06:51:21;20.54;;;12.10;;
2824;SDS011;1420;51.324;12.344;2022-08-11T06:53:50;19.62;;;8.76;;
2824;SDS011;1420;51.324;12.344;2022-08-11T06:56:23;20.02;;;10.24;;
2824;SDS011;1420;51.324;12.344;2022-08-11T06:58:55;20.04;;;11.36;;
2824;SDS011;1420;51.324;12.344;2022-08-11T07:01:31;23.42;;;13.58;;
2824;SDS011;1420;51.324;12.344;2022-08-11T07:04:04;21.46;;;12.86;;
2824;SDS011;1420;51.324;12.344;2022-08-11T07:06:32;20.58;;;10.80;;
2824;SDS011;1420;51.324;12.344;2022-08-11T07:09:12;21.60;;;12.40;;
2824;SDS011;1420;51.324;12.344;2022-08-11T07:11:49;21.26;;;11.46;;
2824;SDS011;1420;51.324;12.344;2022-08-11T07:14:20;19.48;;;10.06;;
2824;SDS011;1420;51.324;12.344;2022-08-11T07:16:50;19.06;;;10.16;;
2824;SDS011;1420;51.324;12.344;2022-08-11T07:19:20;19.88;;;10.36;;
2824;SDS011;1420;51.324;12.344;2022-08-11T07:21:51;20.66;;;12.76;;
2824;SDS011;1420;51.324;12.344;2022-08-11T07:24:27;18.98;;;12.74;;
2824;SDS011;1420;51.324;12.344;2022-08-11T07:26:58;20.62;;;11.98;;
2824;SDS011;1420;51.324;12.344;2022-08-11T07:29:31;18.98;;;10.96;;
2824;SDS011;1420;51.324;12.344;2022-08-11T07:31:58;20.06;;;12.52;;
2824;SDS011;1420;51.324;12.344;2022-08-11T07:34:27;18.80;;;9.48;;
2824;SDS011;1420;51.324;12.344;2022-08-11T07:36:55;19.04;;;10.08;;
2824;SDS011;1420;51.324;12.344;2022-08-11T07:39:23;17.86;;;8.54;;
2824;SDS011;1420;51.324;12.344;2022-08-11T07:41:50;19.94;;;8.78;;
2824;SDS011;1420;51.324;12.344;2022-08-11T07:44:16;17.34;;;6.98;;
2824;SDS011;1420;51.324;12.344;2022-08-11T07:46:46;17.40;;;7.38;;
2824;SDS011;1420;51.324;12.344;2022-08-11T07:49:17;18.18;;;7.18;;
2824;SDS011;1420;51.324;12.344;2022-08-11T07:51:50;18.36;;;8.88;;
2824;SDS011;1420;51.324;12.344;2022-08-11T07:54:23;19.72;;;10.36;;
2824;SDS011;1420;51.324;12.344;2022-08-11T07:56:50;20.22;;;12.50;;
2824;SDS011;1420;51.324;12.344;2022-08-11T07:59:17;19.78;;;10.32;;
2824;SDS011;1420;51.324;12.344;2022-08-11T08:01:50;18.60;;;10.92;;
2824;SDS011;1420;51.324;12.344;2022-08-11T08:04:24;17.02;;;9.74;;
2824;SDS011;1420;51.324;12.344;2022-08-11T08:06:57;19.94;;;8.62;;
2824;SDS011;1420;51.324;12.344;2022-08-11T08:09:32;19.26;;;13.00;;
2824;SDS011;1420;51.324;12.344;2022-08-11T08:12:03;23.74;;;18.00;;
2824;SDS011;1420;51.324;12.344;2022-08-11T08:14:35;21.92;;;16.38;;
2824;SDS011;1420;51.324;12.344;2022-08-11T08:17:08;22.22;;;19.28;;
2824;SDS011;1420;51.324;12.344;2022-08-11T08:19:42;23.68;;;21.18;;
2824;SDS011;1420;51.324;12.344;2022-08-11T08:22:10;27.72;;;24.92;;
2824;SDS011;1420;51.324;12.344;2022-08-11T08:24:38;39.08;;;35.68;;
2824;SDS011;1420;51.324;12.344;2022-08-11T08:27:05;33.14;;;30.02;;
2824;SDS011;1420;51.324;12.344;2022-08-11T08:29:34;24.68;;;22.22;;
2824;SDS011;1420;51.324;12.344;2022-08-11T08:32:06;23.96;;;21.58;;
2824;SDS011;1420;51.324;12.344;2022-08-11T08:34:34;27.26;;;24.56;;
2824;SDS011;1420;51.324;12.344;2022-08-11T08:37:00;25.10;;;22.52;;
2824;SDS011;1420;51.324;12.344;2022-08-11T08:39:28;35.46;;;32.42;;
2824;SDS011;1420;51.324;12.344;2022-08-11T08:41:56;29.14;;;26.36;;
2824;SDS011;1420;51.324;12.344;2022-08-11T08:44:22;28.46;;;25.86;;
2824;SDS011;1420;51.324;12.344;2022-08-11T08:46:52;32.12;;;29.22;;
2824;SDS011;1420;51.324;12.344;2022-08-11T08:49:18;39.56;;;36.28;;
2824;SDS011;1420;51.324;12.344;2022-08-11T08:51:44;33.30;;;30.18;;
2824;SDS011;1420;51.324;12.344;2022-08-11T08:54:16;27.52;;;24.80;;
2824;SDS011;1420;51.324;12.344;2022-08-11T08:56:43;35.30;;;32.00;;
2824;SDS011;1420;51.324;12.344;2022-08-11T08:59:11;37.64;;;34.26;;
2824;SDS011;1420;51.324;12.344;2022-08-11T09:01:42;52.32;;;48.22;;
2824;SDS011;1420;51.324;12.344;2022-08-11T09:04:16;43.90;;;40.30;;
2824;SDS011;1420;51.324;12.344;2022-08-11T09:06:44;28.36;;;25.56;;
2824;SDS011;1420;51.324;12.344;2022-08-11T09:09:12;20.48;;;14.66;;
2824;SDS011;1420;51.324;12.344;2022-08-11T09:11:40;29.76;;;26.98;;
2824;SDS011;1420;51.324;12.344;2022-08-11T09:14:13;23.44;;;19.54;;
2824;SDS011;1420;51.324;12.344;2022-08-11T09:16:41;25.14;;;20.86;;
2824;SDS011;1420;51.324;12.344;2022-08-11T09:19:09;28.00;;;25.20;;
2824;SDS011;1420;51.324;12.344;2022-08-11T09:21:39;22.22;;;16.80;;
2824;SDS011;1420;51.324;12.344;2022-08-11T09:24:06;23.22;;;20.46;;
2824;SDS011;1420;51.324;12.344;2022-08-11T09:26:39;23.00;;;19.10;;
2824;SDS011;1420;51.324;12.344;2022-08-11T09:29:12;33.14;;;30.04;;
2824;SDS011;1420;51.324;12.344;2022-08-11T09:31:39;60.44;;;56.22;;
2824;SDS011;1420;51.324;12.344;2022-08-11T09:34:07;23.32;;;20.06;;
2824;SDS011;1420;51.324;12.344;2022-08-11T09:36:36;22.10;;;19.42;;
2824;SDS011;1420;51.324;12.344;2022-08-11T09:39:08;54.72;;;50.50;;
2824;SDS011;1420;51.324;12.344;2022-08-11T09:41:41;48.22;;;44.22;;
2824;SDS011;1420;51.324;12.344;2022-08-11T09:44:08;58.58;;;54.32;;
2824;SDS011;1420;51.324;12.344;2022-08-11T09:46:41;55.70;;;51.28;;
2824;SDS011;1420;51.324;12.344;2022-08-11T09:49:08;29.70;;;26.82;;
2824;SDS011;1420;51.324;12.344;2022-08-11T09:51:35;106.64;;;100.44;;
2824;SDS011;1420;51.324;12.344;2022-08-11T09:54:03;84.98;;;79.70;;
2824;SDS011;1420;51.324;12.344;2022-08-11T09:56:32;137.98;;;130.60;;
2824;SDS011;1420;51.324;12.344;2022-08-11T09:59:04;93.92;;;87.98;;
2824;SDS011;1420;51.324;12.344;2022-08-11T10:01:33;28.38;;;25.48;;
2824;SDS011;1420;51.324;12.344;2022-08-11T10:04:04;59.76;;;55.20;;
2824;SDS011;1420;51.324;12.344;2022-08-11T10:06:30;91.12;;;85.72;;
2824;SDS011;1420;51.324;12.344;2022-08-11T10:09:03;53.74;;;49.58;;
2824;SDS011;1420;51.324;12.344;2022-08-11T10:11:30;30.76;;;27.70;;
2824;SDS011;1420;51.324;12.344;2022-08-11T10:13:58;35.52;;;32.12;;
2824;SDS011;1420;51.324;12.344;2022-08-11T10:16:33;19.44;;;11.78;;
2824;SDS011;1420;51.324;12.344;2022-08-11T10:19:00;20.76;;;13.16;;
2824;SDS011;1420;51.324;12.344;2022-08-11T10:21:29;36.02;;;32.88;;
2824;SDS011;1420;51.324;12.344;2022-08-11T10:23:55;61.42;;;57.02;;
2824;SDS011;1420;51.324;12.344;2022-08-11T10:26:28;24.26;;;19.26;;
2824;SDS011;1420;51.324;12.344;2022-08-11T10:29:00;73.98;;;68.96;;
2824;SDS011;1420;51.324;12.344;2022-08-11T10:31:28;38.46;;;35.04;;
2824;SDS011;1420;51.324;12.344;2022-08-11T10:34:01;25.82;;;22.50;;
2824;SDS011;1420;51.324;12.344;2022-08-11T10:36:30;24.02;;;17.60;;
2824;SDS011;1420;51.324;12.344;2022-08-11T10:38:58;27.64;;;22.14;;
2824;SDS011;1420;51.324;12.344;2022-08-11T10:41:25;83.94;;;78.72;;
2824;SDS011;1420;51.324;12.344;2022-08-11T10:43:58;24.98;;;18.78;;
2824;SDS011;1420;51.324;12.344;2022-08-11T10:46:26;19.48;;;10.72;;
2824;SDS011;1420;51.324;12.344;2022-08-11T10:48:59;17.98;;;7.40;;
2824;SDS011;1420;51.324;12.344;2022-08-11T10:51:26;26.36;;;23.44;;
2824;SDS011;1420;51.324;12.344;2022-08-11T10:53:59;19.58;;;10.48;;
2824;SDS011;1420;51.324;12.344;2022-08-11T10:56:34;32.50;;;29.30;;
2824;SDS011;1420;51.324;12.344;2022-08-11T10:59:05;46.24;;;42.44;;
2824;SDS011;1420;51.324;12.344;2022-08-11T11:01:33;27.30;;;17.14;;
2824;SDS011;1420;51.324;12.344;2022-08-11T11:04:01;19.28;;;11.04;;
2824;SDS011;1420;51.324;12.344;2022-08-11T11:07:05;20.88;;;14.36;;
2824;SDS011;1420;51.324;12.344;2022-08-11T11:09:18;19.42;;;10.42;;
2824;SDS011;1420;51.324;12.344;2022-08-11T11:11:50;40.70;;;37.06;;
2824;SDS011;1420;51.324;12.344;2022-08-11T11:14:24;70.54;;;65.78;;
2824;SDS011;1420;51.324;12.344;2022-08-11T11:16:55;42.12;;;38.48;;
2824;SDS011;1420;51.324;12.344;2022-08-11T11:19:28;80.76;;;75.50;;
2824;SDS011;1420;51.324;12.344;2022-08-11T11:21:55;105.58;;;99.36;;
2824;SDS011;1420;51.324;12.344;2022-08-11T11:26:59;63.32;;;58.74;;
2824;SDS011;1420;51.324;12.344;2022-08-11T11:29:30;102.78;;;96.48;;
2824;SDS011;1420;51.324;12.344;2022-08-11T11:32:14;127.66;;;120.16;;
2824;SDS011;1420;51.324;12.344;2022-08-11T11:37:17;62.22;;;57.76;;
2824;SDS011;1420;51.324;12.344;2022-08-11T11:39:44;106.00;;;99.70;;
2824;SDS011;1420;51.324;12.344;2022-08-11T11:42:11;65.02;;;60.38;;
2824;SDS011;1420;51.324;12.344;2022-08-11T11:44:40;78.12;;;72.98;;
2824;SDS011;1420;51.324;12.344;2022-08-11T11:47:06;91.96;;;85.96;;
2824;SDS011;1420;51.324;12.344;2022-08-11T11:49:33;96.56;;;90.36;;
2824;SDS011;1420;51.324;12.344;2022-08-11T11:52:01;109.80;;;103.14;;
2824;SDS011;1420;51.324;12.344;2022-08-11T11:54:29;120.54;;;113.24;;
2824;SDS011;1420;51.324;12.344;2022-08-11T11:56:57;196.02;;;184.86;;
2824;SDS011;1420;51.324;12.344;2022-08-11T11:59:23;171.68;;;161.98;;
2824;SDS011;1420;51.324;12.344;2022-08-11T12:01:56;239.70;;;227.48;;
2824;SDS011;1420;51.324;12.344;2022-08-11T12:04:23;236.56;;;224.24;;
2824;SDS011;1420;51.324;12.344;2022-08-11T12:06:51;192.82;;;182.42;;
2824;SDS011;1420;51.324;12.344;2022-08-11T12:09:18;232.22;;;219.88;;
2824;SDS011;1420;51.324;12.344;2022-08-11T12:11:46;327.84;;;309.72;;
2824;SDS011;1420;51.324;12.344;2022-08-11T12:14:35;268.50;;;254.66;;
2824;SDS011;1420;51.324;12.344;2022-08-11T12:17:03;339.72;;;321.54;;
2824;SDS011;1420;51.324;12.344;2022-08-11T12:19:30;265.18;;;251.86;;
2824;SDS011;1420;51.324;12.344;2022-08-11T12:21:58;311.02;;;295.98;;
2824;SDS011;1420;51.324;12.344;2022-08-11T12:24:31;305.72;;;290.80;;
2824;SDS011;1420;51.324;12.344;2022-08-11T12:27:04;350.32;;;333.86;;
2824;SDS011;1420;51.324;12.344;2022-08-11T12:29:36;411.12;;;388.40;;
2824;SDS011;1420;51.324;12.344;2022-08-11T12:32:05;266.30;;;252.98;;
2824;SDS011;1420;51.324;12.344;2022-08-11T12:34:32;291.32;;;277.40;;
2824;SDS011;1420;51.324;12.344;2022-08-11T12:37:00;464.82;;;437.68;;
2824;SDS011;1420;51.324;12.344;2022-08-11T12:39:30;311.66;;;295.56;;
2824;SDS011;1420;51.324;12.344;2022-08-11T12:42:12;253.46;;;241.04;;
2824;SDS011;1420;51.324;12.344;2022-08-11T12:44:44;306.02;;;290.00;;
2824;SDS011;1420;51.324;12.344;2022-08-11T12:47:18;297.70;;;282.36;;
2824;SDS011;1420;51.324;12.344;2022-08-11T12:49:46;312.18;;;297.20;;
2824;SDS011;1420;51.324;12.344;2022-08-11T12:52:21;440.14;;;418.44;;
2824;SDS011;1420;51.324;12.344;2022-08-11T12:54:52;329.14;;;312.84;;
2824;SDS011;1420;51.324;12.344;2022-08-11T12:57:31;275.18;;;261.52;;
2824;SDS011;1420;51.324;12.344;2022-08-11T13:00:03;355.80;;;339.34;;
2824;SDS011;1420;51.324;12.344;2022-08-11T13:02:35;313.56;;;298.06;;
2824;SDS011;1420;51.324;12.344;2022-08-11T13:05:10;282.70;;;268.70;;
2824;SDS011;1420;51.324;12.344;2022-08-11T13:07:35;280.74;;;266.64;;
2824;SDS011;1420;51.324;12.344;2022-08-11T13:10:03;324.26;;;308.66;;
2824;SDS011;1420;51.324;12.344;2022-08-11T13:12:31;264.32;;;250.50;;
2824;SDS011;1420;51.324;12.344;2022-08-11T13:15:04;202.68;;;191.60;;
2824;SDS011;1420;51.324;12.344;2022-08-11T13:17:32;233.82;;;221.18;;
2824;SDS011;1420;51.324;12.344;2022-08-11T13:19:59;311.78;;;296.20;;
2824;SDS011;1420;51.324;12.344;2022-08-11T13:22:27;322.24;;;306.86;;
2824;SDS011;1420;51.324;12.344;2022-08-11T13:24:54;274.18;;;260.34;;
2824;SDS011;1420;51.324;12.344;2022-08-11T13:27:21;295.44;;;281.44;;
2824;SDS011;1420;51.324;12.344;2022-08-11T13:29:49;279.34;;;265.74;;
2824;SDS011;1420;51.324;12.344;2022-08-11T13:32:16;401.46;;;379.64;;
2824;SDS011;1420;51.324;12.344;2022-08-11T13:34:43;321.98;;;305.54;;
2824;SDS011;1420;51.324;12.344;2022-08-11T13:37:10;293.08;;;278.82;;
2824;SDS011;1420;51.324;12.344;2022-08-11T13:39:37;303.30;;;288.64;;
2824;SDS011;1420;51.324;12.344;2022-08-11T13:42:04;307.94;;;292.16;;
2824;SDS011;1420;51.324;12.344;2022-08-11T13:44:33;315.50;;;300.52;;
2824;SDS011;1420;51.324;12.344;2022-08-11T13:47:02;375.74;;;357.68;;
2824;SDS011;1420;51.324;12.344;2022-08-11T13:49:29;323.42;;;307.96;;
2824;SDS011;1420;51.324;12.344;2022-08-11T13:51:57;452.66;;;427.92;;
2824;SDS011;1420;51.324;12.344;2022-08-11T13:54:25;278.70;;;264.94;;
2824;SDS011;1420;51.324;12.344;2022-08-11T13:56:53;243.38;;;230.72;;
2824;SDS011;1420;51.324;12.344;2022-08-11T13:59:20;259.82;;;247.24;;
2824;SDS011;1420;51.324;12.344;2022-08-11T14:01:48;220.44;;;208.62;;
2824;SDS011;1420;51.324;12.344;2022-08-11T14:04:16;208.86;;;197.14;;
2824;SDS011;1420;51.324;12.344;2022-08-11T14:06:44;287.88;;;273.24;;
2824;SDS011;1420;51.324;12.344;2022-08-11T14:09:11;260.26;;;247.32;;
2824;SDS011;1420;51.324;12.344;2022-08-11T14:11:38;277.98;;;264.18;;
2824;SDS011;1420;51.324;12.344;2022-08-11T14:14:12;260.46;;;247.60;;
2824;SDS011;1420;51.324;12.344;2022-08-11T14:16:40;202.78;;;192.08;;
2824;SDS011;1420;51.324;12.344;2022-08-11T14:19:06;179.36;;;169.24;;
2824;SDS011;1420;51.324;12.344;2022-08-11T14:21:33;161.20;;;151.92;;
2824;SDS011;1420;51.324;12.344;2022-08-11T14:24:05;213.34;;;201.80;;
2824;SDS011;1420;51.324;12.344;2022-08-11T14:26:33;246.22;;;233.64;;
2824;SDS011;1420;51.324;12.344;2022-08-11T14:29:03;263.48;;;249.80;;
2824;SDS011;1420;51.324;12.344;2022-08-11T14:31:44;248.94;;;236.06;;
2824;SDS011;1420;51.324;12.344;2022-08-11T14:34:11;313.78;;;298.78;;
2824;SDS011;1420;51.324;12.344;2022-08-11T14:36:39;285.66;;;271.24;;
2824;SDS011;1420;51.324;12.344;2022-08-11T14:39:11;345.52;;;328.50;;
2824;SDS011;1420;51.324;12.344;2022-08-11T14:41:38;292.56;;;278.42;;
2824;SDS011;1420;51.324;12.344;2022-08-11T14:44:11;340.66;;;324.76;;
2824;SDS011;1420;51.324;12.344;2022-08-11T14:46:44;297.02;;;283.22;;
2824;SDS011;1420;51.324;12.344;2022-08-11T14:49:18;327.90;;;312.08;;
2824;SDS011;1420;51.324;12.344;2022-08-11T14:51:45;363.88;;;345.60;;
2824;SDS011;1420;51.324;12.344;2022-08-11T14:54:13;323.10;;;307.58;;
2824;SDS011;1420;51.324;12.344;2022-08-11T14:56:45;341.24;;;324.60;;
2824;SDS011;1420;51.324;12.344;2022-08-11T14:59:12;331.90;;;315.76;;
2824;SDS011;1420;51.324;12.344;2022-08-11T15:01:40;289.06;;;274.50;;
2824;SDS011;1420;51.324;12.344;2022-08-11T15:04:13;461.00;;;435.64;;
2824;SDS011;1420;51.324;12.344;2022-08-11T15:06:41;283.70;;;270.10;;
2824;SDS011;1420;51.324;12.344;2022-08-11T15:09:08;262.66;;;249.36;;
2824;SDS011;1420;51.324;12.344;2022-08-11T15:11:35;239.72;;;226.92;;
2824;SDS011;1420;51.324;12.344;2022-08-11T15:14:09;271.12;;;257.56;;
2824;SDS011;1420;51.324;12.344;2022-08-11T15:16:36;256.66;;;243.44;;
2824;SDS011;1420;51.324;12.344;2022-08-11T15:19:08;231.30;;;218.86;;
2824;SDS011;1420;51.324;12.344;2022-08-11T15:21:35;220.96;;;209.58;;
2824;SDS011;1420;51.324;12.344;2022-08-11T15:24:09;247.84;;;235.54;;
2824;SDS011;1420;51.324;12.344;2022-08-11T15:26:41;235.66;;;223.86;;
2824;SDS011;1420;51.324;12.344;2022-08-11T15:29:14;245.32;;;232.26;;
2824;SDS011;1420;51.324;12.344;2022-08-11T15:31:47;263.26;;;250.12;;
2824;SDS011;1420;51.324;12.344;2022-08-11T15:34:21;297.70;;;283.06;;
2824;SDS011;1420;51.324;12.344;2022-08-11T15:37:06;296.22;;;281.50;;
2824;SDS011;1420;51.324;12.344;2022-08-11T15:39:40;286.12;;;271.76;;
2824;SDS011;1420;51.324;12.344;2022-08-11T15:42:08;276.48;;;262.48;;
2824;SDS011;1420;51.324;12.344;2022-08-11T15:44:41;266.14;;;252.50;;
2824;SDS011;1420;51.324;12.344;2022-08-11T15:47:13;251.38;;;239.00;;
2824;SDS011;1420;51.324;12.344;2022-08-11T15:49:40;262.16;;;248.46;;
2824;SDS011;1420;51.324;12.344;2022-08-11T15:52:08;272.02;;;257.64;;
2824;SDS011;1420;51.324;12.344;2022-08-11T15:54:37;329.94;;;313.46;;
2824;SDS011;1420;51.324;12.344;2022-08-11T15:57:03;300.30;;;285.40;;